Bodorgan, United Kingdom
Current Conditions -  °F | °C
As of 12:50 PM on Friday 24 Oct 2014 (Local Time) from EGOV Reporting Station
Broken Clouds Broken Clouds  
Wind Chill: 55°   Ceiling: 5200
Heat Index: 55°   Visibility: 6mi
Dew Point: 45°   Wind: 16mph
Humidity: 67%   Direction: 230°SW
Pressure: 29.88"   Gusts: NA
Location:  53.2°N, 4.4°W
Report Text: EGOV 241150Z 23014KT 9999 FEW024 BKN052 13/07 Q1012 BLU NOSIG
Loading
Personal Weather Stations






























Interactive Weather Map
Tropical Storm Tracking
New forecast layout! Learn more

10-Day Weather Forecast

Advertisements
Track Severe Weather on mobile